Time;durP1;ratioP1;P1;durP2;ratioP2;P2;SDS_P1;SDS_P2;PMS_P1;PMS_P2;Temp;Humidity;BMP_temperature;BMP_pressure;BME280_temperature;BME280_humidity;BME280_pressure;Samples;Min_cycle;Max_cycle;Signal;HPM_P1;HPM_P2
2023/07/17 00:00:48;;;;;;;6.18;1.70;;;20.90;99.90;;;;;;5074547;28;20060;-82
2023/07/17 00:03:13;;;;;;;4.13;2.17;;;21.00;99.90;;;;;;5072353;28;20126;-81
2023/07/17 00:05:39;;;;;;;3.70;1.50;;;21.00;99.90;;;;;;5073041;28;20070;-83
2023/07/17 00:08:05;;;;;;;3.47;1.60;;;20.90;99.90;;;;;;5072847;28;20520;-83
2023/07/17 00:10:31;;;;;;;7.07;1.83;;;20.90;99.90;;;;;;5074245;28;20021;-83
2023/07/17 00:12:56;;;;;;;5.15;1.90;;;20.90;99.90;;;;;;5072239;28;20122;-83
2023/07/17 00:15:22;;;;;;;2.80;1.40;;;20.80;99.90;;;;;;5073131;28;20052;-83
2023/07/17 00:17:48;;;;;;;3.95;1.60;;;20.90;99.90;;;;;;5072944;28;20017;-83
2023/07/17 00:20:13;;;;;;;3.50;1.73;;;20.90;99.90;;;;;;5072303;28;20047;-84
2023/07/17 00:22:39;;;;;;;4.35;2.08;;;20.80;99.90;;;;;;5073021;28;20062;-83
2023/07/17 00:25:05;;;;;;;4.30;1.70;;;20.90;99.90;;;;;;5072566;28;20031;-83
2023/07/17 00:27:31;;;;;;;2.92;1.60;;;20.80;99.90;;;;;;5072826;28;20025;-83
2023/07/17 00:29:57;;;;;;;3.00;1.65;;;20.80;99.90;;;;;;5073139;28;20016;-82
2023/07/17 00:32:23;;;;;;;6.22;1.70;;;20.80;99.90;;;;;;5072096;28;20052;-82
2023/07/17 00:34:48;;;;;;;4.70;1.48;;;20.80;99.90;;;;;;5073689;28;20090;-83
2023/07/17 00:37:14;;;;;;;3.63;1.70;;;20.80;99.90;;;;;;5072401;28;20017;-82
2023/07/17 00:39:40;;;;;;;4.55;1.60;;;20.80;99.90;;;;;;5072819;28;20100;-83
2023/07/17 00:42:07;;;;;;;3.63;1.73;;;20.80;99.90;;;;;;5072525;28;20120;-82
2023/07/17 00:44:35;;;;;;;4.00;1.60;;;20.80;99.90;;;;;;5072522;28;20111;-82
2023/07/17 00:47:02;;;;;;;4.93;1.63;;;20.80;99.90;;;;;;5072729;28;20021;-82
2023/07/17 00:49:29;;;;;;;4.18;1.80;;;20.80;99.90;;;;;;5073374;28;20109;-83
2023/07/17 00:51:56;;;;;;;4.40;1.58;;;20.70;99.90;;;;;;5073330;28;20453;-83
2023/07/17 00:54:22;;;;;;;3.97;1.70;;;20.80;99.90;;;;;;5072368;28;20024;-83
2023/07/17 00:56:48;;;;;;;4.57;2.20;;;20.70;99.90;;;;;;5073672;28;20029;-83
2023/07/17 00:59:15;;;;;;;2.65;1.75;;;20.70;99.90;;;;;;5072005;28;20032;-83
2023/07/17 01:01:42;;;;;;;4.85;1.80;;;20.70;99.90;;;;;;5073863;28;20020;-83
2023/07/17 01:04:08;;;;;;;5.50;2.00;;;20.70;99.90;;;;;;5072483;28;20107;-83
2023/07/17 01:06:38;;;;;;;4.93;1.83;;;20.80;99.90;;;;;;5072940;28;20035;-83
2023/07/17 01:09:06;;;;;;;4.63;1.80;;;20.70;99.90;;;;;;5073515;28;20420;-82
2023/07/17 01:11:32;;;;;;;3.95;1.70;;;20.60;99.90;;;;;;5076880;28;20343;-83
2023/07/17 01:13:58;;;;;;;4.85;1.65;;;20.60;99.90;;;;;;5076186;28;20471;-82
2023/07/17 01:16:24;;;;;;;1.77;1.25;;;20.60;99.90;;;;;;5077337;28;20033;-83
2023/07/17 01:18:49;;;;;;;4.68;1.75;;;20.60;99.90;;;;;;5076287;28;20083;-83
2023/07/17 01:21:19;;;;;;;2.75;1.52;;;20.60;99.90;;;;;;5075820;28;20024;-82
2023/07/17 01:23:45;;;;;;;5.35;1.50;;;20.60;99.90;;;;;;5076824;28;20017;-83
2023/07/17 01:26:15;;;;;;;4.50;1.80;;;20.70;99.90;;;;;;5075885;28;20458;-82
2023/07/17 01:28:42;;;;;;;4.28;1.63;;;20.60;99.90;;;;;;5076916;28;20044;-83
2023/07/17 01:31:08;;;;;;;3.67;2.03;;;20.60;99.90;;;;;;5075935;28;20020;-83
2023/07/17 01:33:34;;;;;;;4.22;1.73;;;20.60;99.90;;;;;;5076345;28;20028;-83
2023/07/17 01:36:01;;;;;;;4.43;1.55;;;20.60;99.90;;;;;;5076858;28;20039;-82
2023/07/17 01:38:27;;;;;;;4.68;1.35;;;20.60;99.90;;;;;;5077346;28;20210;-83
2023/07/17 01:40:52;;;;;;;4.55;1.73;;;20.60;99.90;;;;;;5077069;28;20076;-83
2023/07/17 01:43:18;;;;;;;3.38;1.75;;;20.60;99.90;;;;;;5075662;28;20596;-83
2023/07/17 01:45:44;;;;;;;4.57;1.77;;;20.60;99.90;;;;;;5076214;28;20059;-83
2023/07/17 01:48:09;;;;;;;7.00;1.90;;;20.50;99.90;;;;;;5075788;28;20016;-84
2023/07/17 01:50:35;;;;;;;4.43;1.55;;;20.60;99.90;;;;;;5076023;28;20020;-84
2023/07/17 01:53:01;;;;;;;3.38;1.40;;;20.60;99.90;;;;;;5075786;28;20460;-84
2023/07/17 01:55:26;;;;;;;3.42;1.55;;;20.60;99.90;;;;;;5077064;28;20044;-84
2023/07/17 01:57:52;;;;;;;3.88;1.80;;;20.60;99.90;;;;;;5075710;28;20035;-83
2023/07/17 02:00:18;;;;;;;4.28;1.35;;;20.60;99.90;;;;;;5075356;28;20031;-83
2023/07/17 02:02:43;;;;;;;3.92;1.75;;;20.70;99.90;;;;;;5075811;28;20450;-84
2023/07/17 02:05:10;;;;;;;3.90;1.63;;;20.60;99.90;;;;;;5075192;28;20024;-84
2023/07/17 02:07:35;;;;;;;3.70;1.83;;;20.70;99.90;;;;;;5076968;28;20437;-85
2023/07/17 02:10:02;;;;;;;3.97;2.03;;;20.70;99.90;;;;;;5076488;28;20107;-82
2023/07/17 02:12:27;;;;;;;5.05;1.90;;;20.60;99.90;;;;;;5075398;28;20052;-84
2023/07/17 02:14:53;;;;;;;3.17;1.73;;;20.60;99.90;;;;;;5076430;28;20071;-83
2023/07/17 02:17:18;;;;;;;4.40;1.55;;;20.70;99.90;;;;;;5075056;28;20078;-83
2023/07/17 02:19:44;;;;;;;3.88;1.33;;;20.60;99.90;;;;;;5074503;28;20032;-83
2023/07/17 02:22:10;;;;;;;4.50;1.40;;;20.60;99.90;;;;;;5075785;28;20021;-83
2023/07/17 02:24:35;;;;;;;4.13;1.50;;;20.70;99.90;;;;;;5076430;28;20446;-83
2023/07/17 02:27:02;;;;;;;7.40;1.88;;;20.60;99.90;;;;;;5075252;28;20102;-82
2023/07/17 02:29:28;;;;;;;5.72;1.50;;;20.60;99.90;;;;;;5076441;28;20510;-83
2023/07/17 02:31:53;;;;;;;9.63;1.52;;;20.70;99.90;;;;;;5075259;28;20119;-84
2023/07/17 02:34:19;;;;;;;7.97;1.70;;;20.70;99.90;;;;;;5074380;28;20020;-83
2023/07/17 02:36:44;;;;;;;6.90;2.17;;;20.60;99.90;;;;;;5075149;28;20372;-83
2023/07/17 02:39:10;;;;;;;5.85;2.10;;;20.70;99.90;;;;;;5074866;28;20039;-84
2023/07/17 02:41:35;;;;;;;4.18;1.50;;;20.70;99.90;;;;;;5075028;28;20128;-83
2023/07/17 02:44:01;;;;;;;3.80;1.95;;;20.70;99.90;;;;;;5074976;28;20027;-83
2023/07/17 02:46:27;;;;;;;3.95;1.40;;;20.60;99.90;;;;;;5074459;28;20048;-84
2023/07/17 02:48:52;;;;;;;2.60;1.60;;;20.60;99.90;;;;;;5074842;28;20103;-84
2023/07/17 02:51:18;;;;;;;5.43;1.60;;;20.60;99.90;;;;;;5074323;28;20112;-83
2023/07/17 02:53:44;;;;;;;3.58;1.75;;;20.60;99.90;;;;;;5076048;28;20095;-83
2023/07/17 02:56:10;;;;;;;3.53;1.70;;;20.60;99.90;;;;;;5074073;28;20549;-83
2023/07/17 02:58:43;;;;;;;3.08;1.70;;;20.60;99.90;;;;;;5074976;28;20025;-83
2023/07/17 03:01:10;;;;;;;6.43;1.70;;;20.50;99.90;;;;;;5074188;28;20022;-82
2023/07/17 03:03:36;;;;;;;4.10;1.85;;;20.50;99.90;;;;;;5074890;28;20027;-82
2023/07/17 03:06:01;;;;;;;7.88;1.80;;;20.50;99.90;;;;;;5074644;28;20028;-82
2023/07/17 03:08:27;;;;;;;5.85;1.85;;;20.50;99.90;;;;;;5074081;28;20020;-81
2023/07/17 03:10:53;;;;;;;3.60;1.50;;;20.40;99.90;;;;;;5075464;28;20028;-82
2023/07/17 03:13:20;;;;;;;3.25;1.58;;;20.40;99.90;;;;;;5073660;28;20028;-82
2023/07/17 03:15:47;;;;;;;5.10;1.85;;;20.40;99.90;;;;;;5074174;28;20036;-82
2023/07/17 03:18:13;;;;;;;5.82;1.90;;;20.40;99.90;;;;;;5073361;28;20489;-82
2023/07/17 03:20:47;;;;;;;5.30;1.65;;;20.40;99.90;;;;;;5075340;28;20031;-81
2023/07/17 03:23:13;;;;;;;4.57;2.08;;;20.40;99.90;;;;;;5073762;28;20446;-82
2023/07/17 03:25:41;;;;;;;5.50;1.73;;;20.40;99.90;;;;;;5074395;28;20044;-82
2023/07/17 03:28:07;;;;;;;4.20;1.88;;;20.30;99.90;;;;;;5074114;28;20025;-83
2023/07/17 03:30:32;;;;;;;6.25;2.00;;;20.30;99.90;;;;;;5074565;28;20074;-82
2023/07/17 03:32:58;;;;;;;4.65;1.85;;;20.30;99.90;;;;;;5073484;28;20012;-82
2023/07/17 03:35:23;;;;;;;4.00;1.98;;;20.20;99.90;;;;;;5074948;28;20240;-82
2023/07/17 03:37:49;;;;;;;3.67;1.90;;;20.20;99.90;;;;;;5074725;28;20075;-82
2023/07/17 03:40:15;;;;;;;6.80;1.67;;;20.20;99.90;;;;;;5073383;28;20016;-82
2023/07/17 03:42:40;;;;;;;2.88;1.92;;;20.20;99.90;;;;;;5074835;28;20442;-82
2023/07/17 03:45:06;;;;;;;3.92;1.75;;;20.20;99.90;;;;;;5073251;28;20041;-81
2023/07/17 03:47:32;;;;;;;4.13;1.98;;;20.10;99.90;;;;;;5073601;28;20066;-82
2023/07/17 03:49:57;;;;;;;3.50;1.77;;;20.10;99.90;;;;;;5073588;28;20083;-83
2023/07/17 03:52:23;;;;;;;5.55;1.73;;;20.10;99.90;;;;;;5072750;28;20028;-82
2023/07/17 03:54:49;;;;;;;2.58;1.70;;;20.00;99.90;;;;;;5073454;28;20041;-83
2023/07/17 03:57:14;;;;;;;3.38;1.73;;;20.10;99.90;;;;;;5072635;28;20366;-83
2023/07/17 03:59:48;;;;;;;4.35;1.90;;;20.10;99.90;;;;;;5074112;28;20020;-82
2023/07/17 04:02:14;;;;;;;4.85;1.98;;;20.00;99.90;;;;;;5073841;28;20021;-82
2023/07/17 04:04:40;;;;;;;3.03;1.60;;;20.00;99.90;;;;;;5072965;28;20020;-82
2023/07/17 04:07:05;;;;;;;6.80;1.52;;;20.00;99.90;;;;;;5074535;28;20078;-83
2023/07/17 04:09:31;;;;;;;3.60;1.90;;;20.00;99.90;;;;;;5074463;28;20103;-82
2023/07/17 04:11:57;;;;;;;3.78;2.00;;;20.00;99.90;;;;;;5073085;28;20024;-82
2023/07/17 04:14:22;;;;;;;3.38;1.77;;;19.90;99.90;;;;;;5073547;28;20024;-83
2023/07/17 04:16:48;;;;;;;5.25;1.90;;;19.90;99.90;;;;;;5073639;28;20032;-82
2023/07/17 04:19:13;;;;;;;3.40;1.63;;;20.00;99.90;;;;;;5072120;28;20474;-82
2023/07/17 04:21:39;;;;;;;6.43;1.88;;;20.00;99.90;;;;;;5072664;28;20442;-82
2023/07/17 04:24:04;;;;;;;5.10;1.77;;;20.10;99.90;;;;;;5073885;28;20087;-82
2023/07/17 04:26:30;;;;;;;7.60;2.58;;;20.10;99.90;;;;;;5072306;28;20028;-82
2023/07/17 04:28:56;;;;;;;6.18;2.10;;;20.10;99.90;;;;;;5072986;28;20107;-82
2023/07/17 04:31:21;;;;;;;4.25;2.10;;;20.10;99.90;;;;;;5072277;28;20017;-82
2023/07/17 04:33:47;;;;;;;8.07;1.85;;;20.20;99.90;;;;;;5072539;28;20111;-83
2023/07/17 04:36:13;;;;;;;2.97;1.50;;;20.10;99.90;;;;;;5071802;28;20032;-82
2023/07/17 04:38:39;;;;;;;5.28;2.10;;;20.20;99.90;;;;;;5072972;28;20047;-82
2023/07/17 04:41:05;;;;;;;3.95;1.92;;;20.10;99.90;;;;;;5072741;28;20017;-82
2023/07/17 04:43:30;;;;;;;3.40;1.73;;;20.10;99.90;;;;;;5071743;28;20017;-82
2023/07/17 04:45:56;;;;;;;6.15;2.08;;;20.10;99.90;;;;;;5072547;28;20045;-82
2023/07/17 04:48:22;;;;;;;5.13;1.85;;;20.10;99.90;;;;;;5072237;28;20074;-82
2023/07/17 04:50:47;;;;;;;4.38;1.90;;;20.10;99.90;;;;;;5072575;28;20020;-83
2023/07/17 04:53:13;;;;;;;3.75;1.90;;;20.10;99.90;;;;;;5071915;28;20021;-82
2023/07/17 04:55:39;;;;;;;6.78;1.67;;;20.00;99.90;;;;;;5072412;28;20541;-83
2023/07/17 04:58:04;;;;;;;5.18;1.90;;;20.00;99.90;;;;;;5072133;28;20024;-83
2023/07/17 05:00:33;;;;;;;4.15;2.10;;;20.10;99.90;;;;;;5071634;28;20025;-82
2023/07/17 05:02:58;;;;;;;4.05;1.88;;;20.10;99.90;;;;;;5071969;28;20028;-82
2023/07/17 05:05:24;;;;;;;4.57;1.70;;;20.00;99.90;;;;;;5073287;28;20020;-83
2023/07/17 05:07:49;;;;;;;2.90;1.63;;;20.10;99.90;;;;;;5072806;28;20020;-82
2023/07/17 05:10:15;;;;;;;4.20;1.70;;;20.10;99.90;;;;;;5072507;28;20043;-82
2023/07/17 05:12:41;;;;;;;4.75;1.80;;;20.10;99.90;;;;;;5072884;28;20021;-82
2023/07/17 05:15:07;;;;;;;4.68;2.03;;;20.10;99.90;;;;;;5072478;28;20093;-83
2023/07/17 05:17:32;;;;;;;6.55;1.73;;;20.10;99.90;;;;;;5072053;28;20028;-83
2023/07/17 05:19:58;;;;;;;4.80;1.70;;;20.10;99.90;;;;;;5072448;28;20034;-83
2023/07/17 05:22:25;;;;;;;4.60;1.85;;;20.10;99.90;;;;;;5072863;28;20025;-83
2023/07/17 05:24:51;;;;;;;3.10;1.55;;;20.10;99.90;;;;;;5072468;28;20033;-83
2023/07/17 05:27:16;;;;;;;4.68;1.58;;;20.10;99.90;;;;;;5073216;28;20099;-82
2023/07/17 05:29:42;;;;;;;5.82;1.90;;;20.10;99.90;;;;;;5072593;28;20013;-82
2023/07/17 05:32:08;;;;;;;8.75;2.17;;;20.10;99.90;;;;;;5073431;28;20017;-82
2023/07/17 05:34:33;;;;;;;3.63;1.60;;;20.10;99.90;;;;;;5071929;28;20016;-83
2023/07/17 05:36:59;;;;;;;8.15;2.10;;;20.20;99.90;;;;;;5072302;28;20013;-82
2023/07/17 05:39:27;;;;;;;7.47;1.92;;;20.20;99.90;;;;;;5071866;28;20105;-83
2023/07/17 05:41:52;;;;;;;10.00;2.60;;;20.20;99.90;;;;;;5072600;28;20047;-84
2023/07/17 05:44:18;;;;;;;4.50;1.88;;;20.20;99.90;;;;;;5071833;28;20511;-83
2023/07/17 05:46:43;;;;;;;7.70;2.10;;;20.30;99.90;;;;;;5073763;28;20045;-84
2023/07/17 05:49:09;;;;;;;3.05;1.90;;;20.30;99.90;;;;;;5072203;28;20021;-84
2023/07/17 05:51:34;;;;;;;3.85;1.60;;;20.40;99.90;;;;;;5072622;28;20082;-84
2023/07/17 05:54:00;;;;;;;3.47;1.50;;;20.40;99.90;;;;;;5072221;28;20025;-84
2023/07/17 05:56:26;;;;;;;7.25;2.00;;;20.50;99.90;;;;;;5074808;28;20508;-84
2023/07/17 05:58:52;;;;;;;4.45;2.08;;;20.60;99.90;;;;;;5075936;28;20025;-84
2023/07/17 06:01:17;;;;;;;5.93;2.20;;;20.50;99.90;;;;;;5075310;28;20035;-83
2023/07/17 06:03:43;;;;;;;3.10;1.70;;;20.60;99.90;;;;;;5076766;28;20024;-85
2023/07/17 06:06:08;;;;;;;6.88;2.08;;;20.60;99.90;;;;;;5076736;28;20025;-84
2023/07/17 06:08:34;;;;;;;8.45;1.98;;;20.70;99.90;;;;;;5076248;28;20017;-85
2023/07/17 06:10:59;;;;;;;4.32;1.92;;;20.70;99.90;;;;;;5076538;28;20105;-83
2023/07/17 06:13:25;;;;;;;4.63;1.60;;;20.80;99.90;;;;;;5075321;28;20024;-84
2023/07/17 06:15:51;;;;;;;4.47;1.90;;;20.80;99.90;;;;;;5075707;28;20035;-84
2023/07/17 06:18:16;;;;;;;4.97;1.65;;;20.80;99.90;;;;;;5075022;28;20013;-84
2023/07/17 06:20:42;;;;;;;7.50;2.30;;;20.80;99.90;;;;;;5075075;28;20126;-84
2023/07/17 06:23:08;;;;;;;5.20;1.65;;;20.90;99.90;;;;;;5074976;28;20022;-84
2023/07/17 06:25:36;;;;;;;5.68;2.03;;;20.90;99.90;;;;;;5074217;28;20064;-83
2023/07/17 06:28:01;;;;;;;5.28;1.80;;;20.90;99.90;;;;;;5075136;28;20032;-84
2023/07/17 06:30:27;;;;;;;3.05;1.50;;;20.90;99.90;;;;;;5074706;28;20024;-83
2023/07/17 06:32:52;;;;;;;2.78;1.75;;;20.90;99.90;;;;;;5075540;28;20016;-83
2023/07/17 06:35:18;;;;;;;6.05;2.03;;;21.00;99.90;;;;;;5074987;28;20420;-82
2023/07/17 06:37:44;;;;;;;5.40;1.70;;;21.00;99.90;;;;;;5075356;28;20020;-83
2023/07/17 06:40:10;;;;;;;3.13;1.70;;;21.00;99.90;;;;;;5075396;28;20016;-83
2023/07/17 06:42:36;;;;;;;4.35;2.00;;;21.00;99.90;;;;;;5074293;28;20021;-82
2023/07/17 06:45:02;;;;;;;5.25;2.25;;;21.00;99.90;;;;;;5070455;28;20032;-82
2023/07/17 06:47:29;;;;;;;4.80;2.08;;;21.00;99.90;;;;;;5075446;28;20108;-83
2023/07/17 06:49:55;;;;;;;10.15;2.40;;;21.10;99.90;;;;;;5075633;28;20048;-84
2023/07/17 06:52:20;;;;;;;4.50;2.00;;;21.10;99.90;;;;;;5071011;28;20032;-82
2023/07/17 06:54:46;;;;;;;2.35;1.80;;;21.10;99.90;;;;;;5066026;28;20529;-83
2023/07/17 06:57:11;;;;;;;5.38;2.08;;;21.10;99.90;;;;;;5074207;28;20028;-83
2023/07/17 06:59:37;;;;;;;8.38;1.83;;;21.10;99.90;;;;;;5073370;28;20016;-84
2023/07/17 07:02:03;;;;;;;5.43;2.20;;;21.20;99.90;;;;;;5073806;28;20108;-81
2023/07/17 07:04:28;;;;;;;4.95;2.45;;;21.20;99.90;;;;;;5075741;28;20480;-84
2023/07/17 07:06:54;;;;;;;3.63;1.77;;;21.20;99.90;;;;;;5073966;28;20028;-83
2023/07/17 07:09:20;;;;;;;6.07;2.25;;;21.20;99.90;;;;;;5073543;28;20415;-82
2023/07/17 07:11:45;;;;;;;6.68;2.10;;;21.20;99.90;;;;;;5074361;28;20083;-83
2023/07/17 07:14:11;;;;;;;4.97;2.25;;;21.30;99.90;;;;;;5073531;28;20115;-82
2023/07/17 07:16:36;;;;;;;6.88;2.25;;;21.30;99.90;;;;;;5073157;28;20186;-82
2023/07/17 07:19:02;;;;;;;7.43;2.45;;;21.40;99.90;;;;;;5073485;28;20110;-83
2023/07/17 07:21:28;;;;;;;7.63;2.42;;;21.50;99.90;;;;;;5074212;28;20046;-82
2023/07/17 07:23:54;;;;;;;5.95;2.40;;;21.40;99.90;;;;;;5073505;28;20453;-83
2023/07/17 07:26:19;;;;;;;7.88;3.03;;;21.50;99.90;;;;;;5074333;28;20027;-82
2023/07/17 07:28:45;;;;;;;7.72;2.40;;;21.50;99.90;;;;;;5073445;28;20037;-82
2023/07/17 07:31:10;;;;;;;7.28;2.67;;;21.60;99.90;;;;;;5073802;28;20031;-81
2023/07/17 07:33:36;;;;;;;7.63;3.20;;;21.70;99.90;;;;;;5073964;28;20021;-83
2023/07/17 07:36:02;;;;;;;7.68;2.60;;;21.70;99.90;;;;;;5073969;28;20028;-82
2023/07/17 07:38:28;;;;;;;5.55;2.60;;;21.80;99.90;;;;;;5073231;28;20078;-82
2023/07/17 07:40:54;;;;;;;6.60;2.38;;;21.90;99.90;;;;;;5074560;28;20028;-83
2023/07/17 07:43:19;;;;;;;5.05;2.67;;;22.10;99.90;;;;;;5071029;28;20077;-84
2023/07/17 07:45:45;;;;;;;6.68;2.75;;;22.10;99.90;;;;;;5071452;28;20045;-89
2023/07/17 07:48:10;;;;;;;6.53;2.38;;;22.10;99.90;;;;;;5072147;28;20029;-82
2023/07/17 07:50:36;;;;;;;6.35;2.83;;;22.10;99.90;;;;;;5073056;28;20031;-83
2023/07/17 07:53:02;;;;;;;5.68;2.58;;;22.10;99.50;;;;;;5072754;28;20042;-83
2023/07/17 07:55:27;;;;;;;5.10;2.75;;;22.20;99.40;;;;;;5071649;28;20032;-85
2023/07/17 07:57:54;;;;;;;7.57;2.65;;;22.20;99.10;;;;;;5072606;28;20105;-83
2023/07/17 08:00:19;;;;;;;5.47;2.35;;;22.20;98.30;;;;;;5071956;28;20024;-84
2023/07/17 08:02:45;;;;;;;7.03;2.95;;;22.20;98.90;;;;;;5073592;28;20016;-84
2023/07/17 08:05:11;;;;;;;4.82;2.20;;;22.20;98.40;;;;;;5072152;28;20024;-81
2023/07/17 08:07:37;;;;;;;9.32;3.08;;;22.20;97.90;;;;;;5070965;28;20515;-81
2023/07/17 08:10:03;;;;;;;6.07;2.83;;;22.20;97.80;;;;;;5062624;28;20081;-83
2023/07/17 08:12:30;;;;;;;6.13;2.80;;;22.30;97.30;;;;;;5069823;28;20016;-81
2023/07/17 08:14:55;;;;;;;6.88;2.97;;;22.30;97.40;;;;;;5072568;28;20029;-82
2023/07/17 08:17:21;;;;;;;7.93;2.63;;;22.30;97.30;;;;;;5073214;28;20361;-82
2023/07/17 08:19:46;;;;;;;6.95;2.75;;;22.30;97.30;;;;;;5072461;28;20454;-83
2023/07/17 08:22:12;;;;;;;7.13;2.83;;;22.30;97.40;;;;;;5072966;28;20023;-81
2023/07/17 08:24:37;;;;;;;6.63;3.25;;;22.30;97.50;;;;;;5073303;28;20031;-82
2023/07/17 08:27:03;;;;;;;7.20;2.50;;;22.30;97.50;;;;;;5074029;28;20033;-81
2023/07/17 08:29:29;;;;;;;5.75;2.90;;;22.30;97.40;;;;;;5071997;28;20055;-85
2023/07/17 08:31:55;;;;;;;7.78;3.00;;;22.30;97.60;;;;;;5072772;28;20030;-84
2023/07/17 08:34:23;;;;;;;6.32;3.10;;;22.20;97.90;;;;;;5072255;28;20458;-83
2023/07/17 08:36:49;;;;;;;7.78;2.88;;;22.20;98.10;;;;;;5054034;28;20024;-85
2023/07/17 08:39:15;;;;;;;6.57;2.70;;;22.20;98.00;;;;;;5073247;28;20461;-81
2023/07/17 08:41:45;;;;;;;5.50;2.97;;;22.20;97.70;;;;;;5072230;28;20140;-82
2023/07/17 08:44:12;;;;;;;6.68;2.85;;;22.30;98.00;;;;;;5072390;28;20021;-82
2023/07/17 08:46:37;;;;;;;4.97;3.10;;;22.30;97.10;;;;;;5071926;28;20056;-83
2023/07/17 08:49:05;;;;;;;8.70;3.08;;;22.30;96.90;;;;;;5072535;28;20024;-82
2023/07/17 08:51:31;;;;;;;7.90;3.10;;;22.40;97.20;;;;;;5073140;28;20017;-82
2023/07/17 08:53:59;;;;;;;5.78;2.95;;;22.40;97.00;;;;;;5073433;28;20020;-84
2023/07/17 08:56:26;;;;;;;4.45;2.40;;;22.50;96.60;;;;;;5071773;28;20481;-84
2023/07/17 08:58:54;;;;;;;8.45;2.88;;;22.50;96.40;;;;;;5072905;28;20024;-85
2023/07/17 09:01:20;;;;;;;7.43;2.65;;;22.60;96.00;;;;;;5072049;28;20020;-82
2023/07/17 09:03:47;;;;;;;5.72;2.72;;;22.70;96.50;;;;;;5072398;28;20027;-88
2023/07/17 09:06:14;;;;;;;6.78;2.75;;;22.80;95.40;;;;;;5073982;28;20029;-89
2023/07/17 09:08:39;;;;;;;5.38;2.40;;;22.80;95.20;;;;;;5072419;28;20170;-85
2023/07/17 09:11:07;;;;;;;7.45;2.45;;;22.80;94.70;;;;;;5071663;28;20466;-83
2023/07/17 09:13:40;;;;;;;6.47;2.60;;;22.80;94.40;;;;;;5071948;28;20031;-84
2023/07/17 09:16:18;;;;;;;5.60;2.72;;;22.90;94.20;;;;;;5073329;28;20369;-83
2023/07/17 09:18:45;;;;;;;6.18;2.38;;;22.90;93.60;;;;;;5072159;28;20112;-83
2023/07/17 09:21:12;;;;;;;5.72;2.30;;;22.90;92.80;;;;;;5072120;28;20027;-82
2023/07/17 09:23:40;;;;;;;3.80;2.05;;;22.90;92.60;;;;;;5071659;28;20016;-83
2023/07/17 09:26:05;;;;;;;8.88;2.60;;;22.90;92.80;;;;;;5073254;28;20115;-83
2023/07/17 09:28:36;;;;;;;5.72;2.20;;;22.90;93.00;;;;;;5071587;28;20110;-83
2023/07/17 09:31:02;;;;;;;4.20;2.20;;;23.00;92.80;;;;;;5074766;28;20021;-82
2023/07/17 09:33:27;;;;;;;4.25;2.55;;;23.10;92.70;;;;;;5075596;28;20260;-83
2023/07/17 09:35:56;;;;;;;6.07;2.42;;;23.10;93.10;;;;;;5071367;28;20107;-84
2023/07/17 09:38:25;;;;;;;5.32;2.33;;;23.20;92.50;;;;;;5073185;28;20024;-84
2023/07/17 09:40:51;;;;;;;7.47;2.38;;;23.20;92.20;;;;;;5075886;28;20028;-84
2023/07/17 09:43:31;;;;;;;6.38;2.40;;;23.30;91.50;;;;;;5079719;28;20019;-84
2023/07/17 09:46:01;;;;;;;5.65;2.00;;;23.40;90.90;;;;;;5079995;28;20080;-82
2023/07/17 09:48:28;;;;;;;4.25;2.15;;;23.50;90.10;;;;;;5074816;28;20024;-83
2023/07/17 09:50:57;;;;;;;5.60;2.08;;;23.50;88.80;;;;;;5076079;28;20024;-83
2023/07/17 09:53:24;;;;;;;6.00;1.88;;;23.50;88.50;;;;;;5075434;28;20437;-82
2023/07/17 09:55:52;;;;;;;4.93;2.10;;;23.50;89.60;;;;;;5075763;28;20025;-82
2023/07/17 09:58:18;;;;;;;3.85;2.45;;;23.60;86.10;;;;;;5075425;28;20366;-84
2023/07/17 10:00:47;;;;;;;6.03;2.40;;;23.60;85.70;;;;;;5073619;28;20017;-82
2023/07/17 10:03:17;;;;;;;5.78;2.10;;;23.80;86.10;;;;;;5074149;28;20020;-82
2023/07/17 10:05:43;;;;;;;5.95;1.90;;;23.80;84.80;;;;;;5074330;28;20030;-82
2023/07/17 10:08:10;;;;;;;7.15;2.67;;;23.80;85.60;;;;;;5076436;28;20024;-82
2023/07/17 10:10:37;;;;;;;5.28;2.20;;;23.80;85.90;;;;;;5073980;28;20020;-83
2023/07/17 10:13:05;;;;;;;5.55;2.10;;;23.90;85.60;;;;;;5076614;28;20047;-83
2023/07/17 10:15:31;;;;;;;3.83;2.00;;;24.00;85.50;;;;;;5088863;28;20029;-82
2023/07/17 10:17:57;;;;;;;3.22;2.05;;;24.10;85.20;;;;;;5075101;28;20116;-82
2023/07/17 10:20:24;;;;;;;6.15;2.20;;;24.10;84.60;;;;;;5073641;28;20039;-82
2023/07/17 10:22:49;;;;;;;5.32;2.22;;;24.10;84.60;;;;;;5073885;28;20033;-83
2023/07/17 10:25:18;;;;;;;4.53;2.03;;;24.10;84.80;;;;;;5074870;28;20033;-82
2023/07/17 10:27:53;;;;;;;4.80;1.95;;;24.00;86.10;;;;;;5073934;28;20024;-79
2023/07/17 10:30:25;;;;;;;6.28;2.13;;;24.10;86.00;;;;;;5075307;28;20438;-80
2023/07/17 10:33:09;;;;;;;9.40;2.42;;;24.10;86.40;;;;;;5073977;28;20089;-79
2023/07/17 10:35:55;;;;;;;4.03;2.50;;;24.10;87.00;;;;;;5073612;28;20036;-79
2023/07/17 10:38:24;;;;;;;5.30;2.40;;;24.20;85.80;;;;;;5073497;28;20112;-79
2023/07/17 10:41:00;;;;;;;5.97;2.17;;;24.30;85.70;;;;;;5074297;28;20024;-79
2023/07/17 10:43:26;;;;;;;7.25;2.10;;;24.30;85.80;;;;;;5072767;28;20020;-79
2023/07/17 10:45:52;;;;;;;5.15;2.25;;;24.30;84.60;;;;;;5073091;28;20114;-79
2023/07/17 10:48:18;;;;;;;4.25;2.15;;;24.30;81.60;;;;;;5072665;28;20461;-79
2023/07/17 10:50:51;;;;;;;5.18;1.92;;;24.30;80.00;;;;;;5069714;28;20024;-79
2023/07/17 10:53:16;;;;;;;4.82;2.10;;;24.30;80.70;;;;;;5070878;28;20020;-79
2023/07/17 10:55:42;;;;;;;5.35;2.72;;;24.30;79.10;;;;;;5072799;28;20043;-79
2023/07/17 10:58:08;;;;;;;3.35;2.15;;;24.30;78.70;;;;;;5073806;28;20032;-79
2023/07/17 11:00:34;;;;;;;4.97;1.80;;;24.40;79.30;;;;;;5072590;28;20094;-79
2023/07/17 11:03:00;;;;;;;4.05;1.83;;;24.50;79.30;;;;;;5073234;28;20034;-79
2023/07/17 11:05:26;;;;;;;3.28;1.67;;;24.50;78.80;;;;;;5073728;28;20082;-79
2023/07/17 11:07:55;;;;;;;5.43;2.08;;;24.50;78.50;;;;;;5073277;28;20029;-80
2023/07/17 11:10:20;;;;;;;4.68;2.03;;;24.70;78.40;;;;;;5074236;28;20052;-79
2023/07/17 11:12:46;;;;;;;3.20;1.98;;;24.60;76.60;;;;;;5072687;28;20082;-79
2023/07/17 11:15:16;;;;;;;7.07;2.17;;;24.70;77.20;;;;;;5073128;28;20028;-79
2023/07/17 11:17:42;;;;;;;3.90;1.88;;;24.70;77.60;;;;;;5072742;28;20024;-80
2023/07/17 11:20:08;;;;;;;4.57;2.08;;;24.70;78.30;;;;;;5075179;28;20024;-84
2023/07/17 11:22:36;;;;;;;7.72;2.30;;;24.80;77.10;;;;;;5074563;28;20024;-84
2023/07/17 11:25:03;;;;;;;6.72;2.10;;;24.80;76.90;;;;;;5073976;28;20028;-84
2023/07/17 11:27:28;;;;;;;5.22;1.92;;;24.80;75.80;;;;;;5073408;28;20032;-83
2023/07/17 11:29:54;;;;;;;4.35;2.03;;;24.90;75.80;;;;;;5074153;28;20029;-84
2023/07/17 11:32:21;;;;;;;6.60;2.25;;;24.90;76.00;;;;;;5073745;28;20120;-83
2023/07/17 11:35:08;;;;;;;5.07;1.88;;;25.00;77.00;;;;;;5073527;28;20020;-84
2023/07/17 11:37:39;;;;;;;5.72;2.17;;;25.10;76.30;;;;;;5073209;28;20028;-83
2023/07/17 11:40:05;;;;;;;;;;;25.10;75.30;;;;;;5074439;28;20028;-84
2023/07/17 11:43:02;;;;;;;5.10;1.90;;;25.00;74.60;;;;;;5073324;28;19904;-84
2023/07/17 11:45:28;;;;;;;5.90;2.25;;;25.20;74.60;;;;;;5053220;28;20049;-84
2023/07/17 11:47:55;;;;;;;6.30;2.20;;;25.40;75.10;;;;;;5063823;28;20013;-84
2023/07/17 11:50:26;;;;;;;3.30;1.55;;;25.40;74.40;;;;;;5073640;28;20082;-83
2023/07/17 11:53:10;;;;;;;;;;;25.40;75.10;;;;;;5072667;28;20111;-84
2023/07/17 11:55:37;;;;;;;5.90;2.55;;;25.30;75.50;;;;;;5072413;28;19917;-84
2023/07/17 11:58:29;;;;;;;6.43;2.00;;;25.30;73.80;;;;;;5073525;28;20040;-84
2023/07/17 12:00:54;;;;;;;;;;;25.30;73.30;;;;;;5068979;28;20032;-84
2023/07/17 12:03:20;;;;;;;5.95;2.10;;;25.40;74.50;;;;;;5073069;28;19907;-84
2023/07/17 12:05:46;;;;;;;4.55;2.05;;;25.40;74.80;;;;;;5065626;28;20020;-84
2023/07/17 12:08:12;;;;;;;7.13;2.25;;;25.50;74.40;;;;;;5072851;28;20077;-84
2023/07/17 12:10:38;;;;;;;4.47;2.15;;;25.50;74.60;;;;;;5072898;28;20029;-84
2023/07/17 12:13:04;;;;;;;4.50;2.28;;;25.60;74.70;;;;;;5072775;28;20027;-85
2023/07/17 12:15:31;;;;;;;4.07;2.17;;;25.60;73.00;;;;;;5072873;28;20511;-84
2023/07/17 12:17:57;;;;;;;8.18;2.15;;;25.70;72.00;;;;;;5073423;28;20024;-84
2023/07/17 12:20:24;;;;;;;4.50;2.13;;;25.70;72.20;;;;;;5072627;28;20024;-83
2023/07/17 12:22:55;;;;;;;4.80;2.28;;;25.80;72.50;;;;;;5073326;28;20016;-82
2023/07/17 12:25:21;;;;;;;7.22;2.30;;;25.90;72.50;;;;;;5071533;28;20500;-79
2023/07/17 12:27:48;;;;;;;4.22;1.92;;;25.90;72.30;;;;;;5071288;28;20028;-80
2023/07/17 12:30:14;;;;;;;4.63;2.05;;;26.10;71.70;;;;;;5071311;28;20024;-81
2023/07/17 12:32:41;;;;;;;4.18;2.35;;;26.00;71.90;;;;;;5071864;28;20025;-81
2023/07/17 12:35:08;;;;;;;3.60;1.95;;;26.10;71.30;;;;;;5072003;28;20051;-80
2023/07/17 12:37:33;;;;;;;4.22;2.40;;;26.10;70.80;;;;;;5071447;28;20025;-79
2023/07/17 12:40:00;;;;;;;3.28;1.92;;;26.20;69.80;;;;;;5068102;28;20040;-85
2023/07/17 12:42:26;;;;;;;6.35;1.90;;;26.30;69.60;;;;;;5071412;28;20485;-85
2023/07/17 12:44:52;;;;;;;6.60;2.35;;;26.30;69.90;;;;;;5072970;28;20060;-84